Time;durP1;ratioP1;P1;durP2;ratioP2;P2;SDS_P1;SDS_P2;PMS_P1;PMS_P2;Temp;Humidity;BMP_temperature;BMP_pressure;BME280_temperature;BME280_humidity;BME280_pressure;Samples;Min_cycle;Max_cycle;Signal;HPM_P1;HPM_P2
2022/06/10 00:00:23;;;;;;;5.40;5.00;;;;;;;14.18;94.71;101870.03;5012268;28;20437;-46
2022/06/10 00:02:51;;;;;;;5.00;4.50;;;;;;;14.22;95.04;101873.13;5012192;28;20463;-45
2022/06/10 00:05:23;;;;;;;7.30;5.30;;;;;;;14.21;94.66;101875.00;5012092;28;20946;-47
2022/06/10 00:07:51;;;;;;;5.27;4.80;;;;;;;14.24;94.95;101873.78;5011614;28;20990;-48
2022/06/10 00:10:21;;;;;;;7.23;6.63;;;;;;;14.25;94.71;101878.94;5011661;28;20435;-46
2022/06/10 00:12:49;;;;;;;6.63;6.03;;;;;;;14.23;94.68;101880.16;5007596;28;20437;-45
2022/06/10 00:15:17;;;;;;;7.43;6.70;;;;;;;14.27;95.21;101881.44;4996403;28;20429;-47
2022/06/10 00:17:45;;;;;;;7.57;6.80;;;;;;;14.28;95.40;101883.94;5011633;28;20467;-47
2022/06/10 00:20:14;;;;;;;10.93;7.77;;;;;;;14.25;95.63;101876.25;5011792;28;20437;-46
2022/06/10 00:22:43;;;;;;;7.13;6.13;;;;;;;14.26;95.71;101891.34;5011819;28;20449;-46
2022/06/10 00:25:12;;;;;;;6.50;5.93;;;;;;;14.21;95.98;101888.44;5011846;28;20477;-49
2022/06/10 00:27:40;;;;;;;7.63;6.80;;;;;;;14.20;96.50;101896.66;5011582;28;20543;-45
2022/06/10 00:30:09;;;;;;;9.00;7.20;;;;;;;14.19;96.56;101886.94;5011541;28;20429;-45
2022/06/10 00:32:37;;;;;;;6.93;6.33;;;;;;;14.18;96.60;101879.94;5004136;28;20464;-49
2022/06/10 00:35:06;;;;;;;8.90;6.03;;;;;;;14.17;96.65;101888.97;5003574;28;20995;-46
2022/06/10 00:37:34;;;;;;;6.20;5.80;;;;;;;14.14;96.64;101884.00;5011601;28;20460;-48
2022/06/10 00:40:04;;;;;;;6.40;5.90;;;;;;;14.15;96.46;101885.69;5011971;28;20459;-50
2022/06/10 00:42:32;;;;;;;9.87;6.80;;;;;;;14.14;96.41;101897.41;5011789;28;20472;-46
2022/06/10 00:45:00;;;;;;;5.73;5.20;;;;;;;14.16;96.54;101887.31;5011800;28;20477;-50
2022/06/10 00:47:35;;;;;;;7.43;5.63;;;;;;;14.15;96.30;101886.50;5011324;28;20425;-48
2022/06/10 00:50:19;;;;;;;6.50;5.87;;;;;;;14.15;96.38;101883.81;5011657;28;20416;-45
2022/06/10 00:52:51;;;;;;;7.97;6.90;;;;;;;14.13;96.05;101882.34;5011877;28;20453;-46
2022/06/10 00:55:28;;;;;;;6.83;6.00;;;;;;;14.07;95.39;101888.47;5011907;28;20435;-47
2022/06/10 00:58:03;;;;;;;6.33;5.70;;;;;;;14.00;95.41;101891.09;5011244;28;20488;-46
2022/06/10 01:00:31;;;;;;;8.13;5.63;;;;;;;13.93;95.16;101902.78;5011378;28;20483;-50
2022/06/10 01:02:58;;;;;;;6.77;6.17;;;;;;;13.88;95.16;101897.16;5011753;28;20432;-46
2022/06/10 01:05:28;;;;;;;8.20;5.80;;;;;;;13.80;95.18;101885.53;5011688;28;20477;-49
2022/06/10 01:08:00;;;;;;;7.67;6.17;;;;;;;13.73;95.43;101892.69;5011123;28;20456;-49
2022/06/10 01:10:39;;;;;;;8.33;6.83;;;;;;;13.65;95.71;101892.75;5011296;28;20435;-47
2022/06/10 01:13:17;;;;;;;7.40;6.70;;;;;;;13.58;95.56;101907.97;5011798;28;20441;-48
2022/06/10 01:15:54;;;;;;;7.63;6.83;;;;;;;13.50;95.83;101905.38;5011650;28;20432;-47
2022/06/10 01:18:46;;;;;;;7.33;6.63;;;;;;;13.43;95.89;101917.88;5011204;28;20467;-45
2022/06/10 01:21:31;;;;;;;8.73;7.07;;;;;;;13.36;96.21;101913.44;5011086;28;20449;-48
2022/06/10 01:24:34;;;;;;;6.73;6.23;;;;;;;13.26;96.17;101909.19;5011569;28;20472;-47
2022/06/10 01:30:23;;;;;;;8.10;7.50;;;;;;;13.10;96.67;101917.44;5011156;28;20432;-47
2022/06/10 01:33:20;;;;;;;7.67;7.00;;;;;;;13.04;97.12;101915.44;5003643;28;20445;-48
2022/06/10 01:36:00;;;;;;;9.43;7.53;;;;;;;12.98;97.26;101920.72;4995343;28;20520;-47
2022/06/10 01:38:33;;;;;;;10.20;7.33;;;;;;;12.94;97.42;101922.06;5010982;28;20471;-49
2022/06/10 01:41:17;;;;;;;7.53;6.80;;;;;;;12.89;97.91;101921.81;5010996;28;20452;-45
2022/06/10 01:43:56;;;;;;;11.70;6.97;;;;;;;12.82;97.81;101915.50;5014709;28;20972;-45
2022/06/10 01:46:30;;;;;;;10.13;8.60;;;;;;;12.76;98.07;101917.91;5014685;28;20448;-45
2022/06/10 01:49:09;;;;;;;7.97;7.20;;;;;;;12.73;98.19;101915.59;5014269;28;20457;-48
2022/06/10 01:51:47;;;;;;;9.63;7.10;;;;;;;12.69;98.16;101925.00;5014475;28;20459;-46
2022/06/10 01:54:22;;;;;;;11.03;7.97;;;;;;;12.64;98.20;101923.88;5014544;28;20464;-46
2022/06/10 01:56:54;;;;;;;8.40;7.50;;;;;;;12.59;98.12;101927.13;5014502;28;20428;-49
2022/06/10 01:59:28;;;;;;;14.40;9.20;;;;;;;12.55;98.49;101933.81;5013999;28;20465;-45
2022/06/10 02:02:06;;;;;;;10.27;8.90;;;;;;;12.51;98.10;101923.69;5014157;28;20621;-45
2022/06/10 02:04:40;;;;;;;10.37;9.23;;;;;;;12.45;98.40;101927.06;5014350;28;20842;-47
2022/06/10 02:07:13;;;;;;;10.37;9.30;;;;;;;12.39;98.32;101920.59;5014266;28;20433;-50
2022/06/10 02:09:45;;;;;;;10.27;8.80;;;;;;;12.33;98.63;101920.47;5014212;28;20441;-45
2022/06/10 02:12:19;;;;;;;12.20;8.77;;;;;;;12.28;98.63;101923.69;5013999;28;20448;-48
2022/06/10 02:14:56;;;;;;;12.13;8.50;;;;;;;12.25;98.57;101932.06;5014184;28;20424;-49
2022/06/10 02:17:29;;;;;;;10.43;9.20;;;;;;;12.21;98.82;101920.88;5013572;28;20436;-46
2022/06/10 02:20:01;;;;;;;12.80;9.80;;;;;;;12.17;98.73;101921.44;5014239;28;20912;-47
2022/06/10 02:22:37;;;;;;;10.80;9.20;;;;;;;12.14;98.70;101927.97;5013878;28;20453;-49
2022/06/10 02:25:11;;;;;;;14.40;10.20;;;;;;;12.11;98.83;101928.31;5013948;28;20492;-45
2022/06/10 02:27:42;;;;;;;11.50;9.30;;;;;;;12.08;98.81;101934.03;5013363;28;20483;-49
2022/06/10 02:30:15;;;;;;;11.80;9.20;;;;;;;12.05;98.82;101937.06;5013633;28;20907;-47
2022/06/10 02:32:44;;;;;;;13.13;10.00;;;;;;;12.03;98.83;101949.78;5006132;28;20472;-49
2022/06/10 02:35:15;;;;;;;14.50;11.50;;;;;;;12.02;98.53;101944.59;5006146;28;20432;-46
2022/06/10 02:37:49;;;;;;;15.97;9.73;;;;;;;12.00;98.70;101946.63;5013747;28;20457;-47
2022/06/10 02:40:23;;;;;;;20.00;11.07;;;;;;;11.99;98.61;101944.94;5013413;28;20428;-45
2022/06/10 02:43:01;;;;;;;12.03;9.90;;;;;;;11.97;98.44;101952.31;5013939;28;20856;-51
2022/06/10 02:45:36;;;;;;;11.90;9.83;;;;;;;11.98;98.38;101951.28;5013454;28;21012;-46
2022/06/10 02:48:10;;;;;;;12.20;9.90;;;;;;;11.99;98.32;101955.63;5013234;28;20460;-46
2022/06/10 02:50:39;;;;;;;10.20;9.20;;;;;;;11.99;98.44;101955.63;5013175;28;20425;-47
2022/06/10 02:53:09;;;;;;;10.70;9.10;;;;;;;12.00;98.05;101954.63;5013070;28;20964;-48
2022/06/10 02:55:38;;;;;;;11.60;9.10;;;;;;;12.00;98.12;101957.31;5013534;28;20432;-47
2022/06/10 03:01:16;;;;;;;12.20;10.43;;;;;;;11.99;98.19;101955.63;5013018;28;20978;-46
2022/06/10 03:04:00;;;;;;;11.83;10.00;;;;;;;11.99;98.38;101961.81;5013226;28;21009;-47
2022/06/10 03:06:37;;;;;;;11.97;10.70;;;;;;;12.01;98.25;101958.97;5013171;28;20487;-45
2022/06/10 03:09:12;;;;;;;20.20;9.60;;;;;;;12.03;98.51;101963.16;5012712;28;20468;-46
2022/06/10 03:11:50;;;;;;;9.60;8.77;;;;;;;12.08;98.39;101960.75;4999070;28;20460;-47
2022/06/10 03:14:27;;;;;;;10.10;9.17;;;;;;;12.13;98.52;101960.22;4996250;28;20519;-46
2022/06/10 03:17:07;;;;;;;15.03;9.50;;;;;;;12.19;98.49;101954.16;5011393;28;20437;-45
2022/06/10 03:19:42;;;;;;;10.90;9.30;;;;;;;12.25;98.45;101958.81;5012535;28;20457;-49
2022/06/10 03:22:20;;;;;;;11.37;9.20;;;;;;;12.31;98.55;101954.56;5012633;28;20449;-47
2022/06/10 03:25:03;;;;;;;10.63;9.00;;;;;;;12.60;97.59;101955.50;5013041;28;20429;-47
2022/06/10 03:27:37;;;;;;;10.03;9.03;;;;;;;13.17;96.09;101947.78;5011674;28;20421;-46
2022/06/10 03:30:08;;;;;;;9.70;8.70;;;;;;;13.70;96.61;101954.72;5012817;28;20915;-49
2022/06/10 03:32:42;;;;;;;11.07;8.90;;;;;;;13.81;98.79;101958.75;5005022;28;20475;-49
2022/06/10 03:35:15;;;;;;;11.63;9.30;;;;;;;13.77;98.98;101954.75;5004654;28;20431;-50
2022/06/10 03:37:45;;;;;;;9.73;8.80;;;;;;;13.73;98.70;101959.69;5012374;28;20469;-47
2022/06/10 03:40:18;;;;;;;14.40;10.10;;;;;;;13.72;98.30;101959.88;5012500;28;20440;-47
2022/06/10 03:42:47;;;;;;;13.57;9.47;;;;;;;13.72;98.06;101966.06;5012401;28;20459;-49
2022/06/10 03:45:17;;;;;;;13.20;10.40;;;;;;;13.68;97.37;101962.09;5012417;28;20978;-45
2022/06/10 03:47:45;;;;;;;12.03;9.53;;;;;;;13.72;97.36;101962.56;5012296;28;20467;-47
2022/06/10 03:50:16;;;;;;;12.30;8.57;;;;;;;13.76;97.31;101963.84;5012300;28;20425;-46
2022/06/10 03:52:46;;;;;;;15.90;9.20;;;;;;;13.84;97.67;101956.53;5012435;28;20461;-45
2022/06/10 03:55:17;;;;;;;10.47;9.40;;;;;;;13.94;97.58;101963.44;5012411;28;20425;-48
2022/06/10 03:57:45;;;;;;;12.70;9.50;;;;;;;14.03;97.12;101965.00;5012153;28;20457;-44
2022/06/10 04:00:16;;;;;;;12.73;8.80;;;;;;;14.15;97.17;101961.63;5012462;28;20436;-46
2022/06/10 04:02:43;;;;;;;15.80;8.97;;;;;;;14.26;96.96;101971.00;5012583;28;20855;-47
2022/06/10 04:05:12;;;;;;;12.10;9.80;;;;;;;14.29;96.01;101971.47;5011847;28;20429;-45
2022/06/10 04:07:40;;;;;;;12.63;10.27;;;;;;;14.36;95.91;101976.94;5011905;28;20536;-47
2022/06/10 04:10:13;;;;;;;19.83;11.10;;;;;;;14.40;95.06;101984.41;5012204;28;20437;-44
2022/06/10 04:12:41;;;;;;;10.30;9.10;;;;;;;14.47;95.19;101981.78;5012537;28;20457;-44
2022/06/10 04:15:09;;;;;;;15.50;10.53;;;;;;;14.67;95.65;101974.72;5012332;28;20443;-47
2022/06/10 04:17:37;;;;;;;10.00;9.07;;;;;;;14.79;95.50;101972.34;5011769;28;20457;-44
2022/06/10 04:20:06;;;;;;;11.30;9.50;;;;;;;14.86;94.66;101973.25;5012173;28;20438;-44
2022/06/10 04:22:34;;;;;;;14.37;9.90;;;;;;;14.93;94.29;101980.31;5011976;28;20475;-45
2022/06/10 04:25:02;;;;;;;15.07;11.77;;;;;;;15.08;94.64;101984.78;5012264;28;20433;-44
2022/06/10 04:27:31;;;;;;;11.40;9.20;;;;;;;15.81;96.64;101978.78;5011404;28;20470;-44
2022/06/10 04:29:59;;;;;;;10.73;8.23;;;;;;;17.22;97.44;101987.50;5012049;28;20934;-46
2022/06/10 04:32:26;;;;;;;14.93;9.20;;;;;;;18.46;92.93;101982.63;5015724;23;21024;-44
2022/06/10 04:34:54;;;;;;;9.13;7.90;;;;;;;19.59;84.71;101984.16;5011680;28;20843;-46
2022/06/10 04:37:22;;;;;;;14.27;7.77;;;;;;;20.59;79.70;101977.97;5011595;28;20451;-46
2022/06/10 04:39:49;;;;;;;7.83;6.80;;;;;;;21.62;75.48;101991.00;5012046;28;20432;-46
2022/06/10 04:42:17;;;;;;;9.30;7.40;;;;;;;22.45;70.95;101991.28;5011677;28;20457;-46
2022/06/10 04:44:46;;;;;;;8.40;7.20;;;;;;;23.18;66.98;101982.97;5012028;28;20922;-45
2022/06/10 04:47:14;;;;;;;10.20;7.40;;;;;;;23.84;62.55;101981.13;5011215;28;20476;-46
2022/06/10 04:49:41;;;;;;;11.27;7.87;;;;;;;24.35;60.81;101991.53;5011976;28;20436;-45
2022/06/10 04:52:09;;;;;;;10.50;7.33;;;;;;;24.89;58.21;101991.50;5011644;28;20452;-45
2022/06/10 04:54:36;;;;;;;10.50;7.50;;;;;;;25.21;55.47;101984.06;5011691;28;20906;-45
2022/06/10 04:57:05;;;;;;;12.70;8.00;;;;;;;25.65;53.89;101985.44;5011872;28;20441;-47
2022/06/10 04:59:32;;;;;;;14.07;8.47;;;;;;;26.16;53.81;101986.47;5011275;28;20475;-44
2022/06/10 05:02:01;;;;;;;11.90;6.80;;;;;;;26.64;52.51;101990.59;5011366;28;20818;-47
2022/06/10 05:04:29;;;;;;;9.50;6.93;;;;;;;27.16;51.67;101993.03;5011886;28;20536;-48
2022/06/10 05:06:57;;;;;;;7.47;6.23;;;;;;;27.73;49.96;101989.88;5011808;28;20831;-49
2022/06/10 05:09:26;;;;;;;9.97;7.40;;;;;;;27.79;47.94;101988.75;5011196;28;20834;-44
2022/06/10 05:11:53;;;;;;;12.20;8.00;;;;;;;28.07;45.36;101994.69;5011373;28;20457;-48
2022/06/10 05:14:21;;;;;;;9.20;6.07;;;;;;;28.52;46.87;101997.91;5011550;28;20432;-46
2022/06/10 05:16:49;;;;;;;11.60;8.13;;;;;;;28.79;44.79;101997.44;5014591;28;20429;-46
2022/06/10 05:19:18;;;;;;;10.10;7.00;;;;;;;28.98;44.81;101992.88;5014915;28;20464;-47
2022/06/10 05:21:45;;;;;;;8.50;5.97;;;;;;;29.26;44.24;101990.44;5015127;28;20227;-48
2022/06/10 05:24:14;;;;;;;7.80;5.67;;;;;;;29.69;43.70;101986.59;5015282;28;20448;-46
2022/06/10 05:26:42;;;;;;;12.20;6.73;;;;;;;29.54;43.14;101984.88;5015038;28;20304;-50
2022/06/10 05:29:09;;;;;;;9.80;6.80;;;;;;;29.82;41.64;101987.84;5014603;28;20230;-46
2022/06/10 05:31:37;;;;;;;11.67;7.00;;;;;;;29.63;41.37;101990.53;5008971;28;20325;-45
2022/06/10 05:36:51;;;;;;;7.13;5.80;;;;;;;29.86;41.67;101983.41;5014946;28;20201;-45
2022/06/10 05:39:19;;;;;;;7.07;5.87;;;;;;;29.70;40.97;101985.50;5014385;28;20225;-49
2022/06/10 05:44:32;;;;;;;11.57;6.65;;;;;;;30.27;39.83;101983.63;5014824;28;20655;-49
2022/06/10 05:47:01;;;;;;;11.43;7.70;;;;;;;30.04;36.58;101983.44;5014753;28;20225;-44
2022/06/10 05:49:29;;;;;;;9.10;6.33;;;;;;;30.47;38.63;101986.91;5014340;28;20227;-46
2022/06/10 05:51:58;;;;;;;10.70;6.07;;;;;;;30.63;38.99;101990.22;5014242;28;20220;-49
2022/06/10 05:54:26;;;;;;;6.97;5.57;;;;;;;31.04;38.54;101993.94;5014807;28;20651;-47
2022/06/10 05:56:54;;;;;;;6.97;5.77;;;;;;;31.18;38.43;102000.28;5014763;28;20193;-44
2022/06/10 05:59:22;;;;;;;14.00;6.80;;;;;;;30.92;33.54;101992.75;5014114;28;20718;-49
2022/06/10 06:01:50;;;;;;;8.47;5.63;;;;;;;30.96;37.87;101994.66;5014226;28;20228;-47
2022/06/10 06:04:18;;;;;;;11.50;6.77;;;;;;;31.38;36.94;101999.06;5014384;28;20202;-44
2022/06/10 06:06:45;;;;;;;11.40;6.10;;;;;;;31.37;33.55;101996.59;5014386;28;20221;-47
2022/06/10 06:09:16;;;;;;;5.80;5.20;;;;;;;31.35;31.58;101993.34;5013858;28;20224;-46
2022/06/10 06:11:50;;;;;;;7.57;5.07;;;;;;;31.61;32.36;101998.06;5014158;28;20468;-46
2022/06/10 06:14:18;;;;;;;4.97;4.47;;;;;;;31.60;34.90;102001.16;5014279;28;20201;-45
2022/06/10 06:16:50;;;;;;;6.90;5.32;;;;;;;31.27;33.30;102005.09;5014194;28;20190;-45
2022/06/10 06:19:18;;;;;;;10.93;4.70;;;;;;;31.25;34.52;102003.47;5013875;28;20551;-50
2022/06/10 06:21:47;;;;;;;9.80;5.07;;;;;;;31.64;33.93;101991.94;5013993;28;20219;-46
2022/06/10 06:24:15;;;;;;;8.00;4.47;;;;;;;31.18;34.30;101996.72;5014698;28;20591;-45
2022/06/10 06:26:44;;;;;;;7.57;4.32;;;;;;;31.65;33.24;101990.84;5013847;28;20221;-47
2022/06/10 06:29:11;;;;;;;5.45;4.85;;;;;;;31.38;33.51;102007.34;5013271;28;20228;-46
2022/06/10 06:31:40;;;;;;;6.25;4.13;;;;;;;31.08;33.74;102000.47;5007563;28;20230;-47
2022/06/10 06:34:08;;;;;;;7.93;4.63;;;;;;;31.23;32.78;102008.47;5004855;28;20194;-46
2022/06/10 06:36:42;;;;;;;9.07;4.35;;;;;;;31.60;33.23;102003.91;5013986;28;20197;-44
2022/06/10 06:39:10;;;;;;;9.20;4.50;;;;;;;31.56;32.56;102008.41;5013484;28;20236;-46
2022/06/10 06:41:39;;;;;;;6.85;4.43;;;;;;;31.32;33.56;102011.31;5013491;28;20304;-46
2022/06/10 06:44:07;;;;;;;6.32;4.80;;;;;;;31.41;33.04;102012.25;5013579;28;20655;-47
2022/06/10 06:46:38;;;;;;;7.88;4.72;;;;;;;31.57;31.69;102005.31;5013582;28;20197;-48
2022/06/10 06:49:08;;;;;;;8.82;4.72;;;;;;;31.55;33.09;102013.09;5013233;28;20225;-44
2022/06/10 06:51:36;;;;;;;8.15;4.25;;;;;;;31.53;32.18;102007.06;5013351;28;20214;-44
2022/06/10 06:54:04;;;;;;;7.63;4.47;;;;;;;31.60;31.41;102009.44;5013392;28;20543;-50
2022/06/10 06:56:32;;;;;;;5.90;4.30;;;;;;;31.21;30.65;102021.72;5013169;28;20198;-46
2022/06/10 06:59:01;;;;;;;5.40;4.00;;;;;;;31.07;31.39;102011.78;5012896;28;20225;-48
2022/06/10 07:01:29;;;;;;;6.65;4.05;;;;;;;30.86;32.72;102007.72;5012917;28;20217;-45
2022/06/10 07:03:56;;;;;;;6.45;3.95;;;;;;;31.14;32.51;102013.03;5013166;28;20198;-44
2022/06/10 07:06:24;;;;;;;6.50;4.10;;;;;;;31.21;30.59;102009.91;5013226;28;20616;-48
2022/06/10 07:08:51;;;;;;;7.68;4.97;;;;;;;31.38;32.62;102020.31;5012577;28;20234;-47
2022/06/10 07:11:19;;;;;;;8.63;4.68;;;;;;;31.55;32.58;102012.28;5012697;28;20217;-45
2022/06/10 07:13:47;;;;;;;5.78;4.47;;;;;;;31.63;31.98;102012.38;5013322;28;20202;-44
2022/06/10 07:16:16;;;;;;;4.07;3.42;;;;;;;31.38;31.01;102009.28;5013265;28;20491;-45
2022/06/10 07:18:44;;;;;;;4.90;4.10;;;;;;;31.36;31.81;102008.78;5012617;28;20229;-50
2022/06/10 07:21:11;;;;;;;5.32;3.97;;;;;;;31.51;31.36;102003.78;5012679;28;20224;-44
2022/06/10 07:23:39;;;;;;;5.18;3.33;;;;;;;31.09;29.72;102010.38;5012873;28;20204;-44
2022/06/10 07:26:06;;;;;;;8.27;4.20;;;;;;;31.00;31.16;102014.16;5012958;28;20205;-48
2022/06/10 07:28:34;;;;;;;5.22;3.25;;;;;;;31.04;30.23;102012.41;5012424;28;20230;-44
2022/06/10 07:31:02;;;;;;;7.50;3.80;;;;;;;30.90;31.38;102008.78;5011682;28;20239;-44
2022/06/10 07:33:34;;;;;;;7.80;4.10;;;;;;;30.83;30.18;102014.66;5001269;28;20600;-45
2022/06/10 07:36:01;;;;;;;5.22;4.03;;;;;;;30.75;32.26;102015.38;5010877;28;20664;-45
2022/06/10 07:38:29;;;;;;;5.07;3.67;;;;;;;30.77;32.05;102015.03;5012150;28;20236;-46
2022/06/10 07:43:44;;;;;;;8.55;4.00;;;;;;;29.75;32.35;102007.41;5012832;28;20197;-46
2022/06/10 07:46:15;;;;;;;5.00;2.80;;;;;;;29.80;32.57;102021.13;5012675;28;20201;-45
2022/06/10 07:48:45;;;;;;;5.90;3.60;;;;;;;29.61;32.94;102007.34;5012034;28;20225;-45
2022/06/10 07:51:13;;;;;;;6.95;4.15;;;;;;;29.89;33.64;102011.13;5012395;28;20218;-45
2022/06/10 07:53:43;;;;;;;4.93;2.83;;;;;;;29.92;32.59;102013.31;5012486;28;20194;-47
2022/06/10 07:56:14;;;;;;;8.27;4.63;;;;;;;29.63;33.55;102012.53;5012565;28;20280;-50
2022/06/10 07:58:42;;;;;;;4.13;3.20;;;;;;;29.85;33.58;102012.00;5012066;28;20232;-44
2022/06/10 08:01:10;;;;;;;7.57;3.93;;;;;;;29.29;33.43;102017.31;5012020;28;20213;-48
2022/06/10 08:03:38;;;;;;;4.57;3.20;;;;;;;29.02;32.55;102007.69;5012496;28;20190;-47
2022/06/10 08:06:07;;;;;;;8.83;3.50;;;;;;;28.64;33.53;102008.56;5012436;28;20221;-45
2022/06/10 08:08:35;;;;;;;6.80;3.60;;;;;;;28.16;34.41;102009.44;5011756;28;20233;-43
2022/06/10 08:11:03;;;;;;;5.83;3.60;;;;;;;27.71;34.03;102010.44;5012039;28;20217;-44
2022/06/10 08:13:31;;;;;;;7.90;4.07;;;;;;;27.29;35.43;102008.91;5012133;28;20466;-48
2022/06/10 08:15:58;;;;;;;4.83;4.33;;;;;;;27.05;35.66;102010.59;5012395;28;20607;-49
2022/06/10 08:18:31;;;;;;;4.40;3.40;;;;;;;26.55;35.77;102003.19;5011893;28;20993;-46
2022/06/10 08:23:46;;;;;;;5.50;3.10;;;;;;;25.42;36.69;102002.22;5012120;28;20471;-44
2022/06/10 08:26:15;;;;;;;4.80;3.40;;;;;;;25.32;37.26;101999.44;5011888;28;20433;-44
2022/06/10 08:28:45;;;;;;;4.83;3.80;;;;;;;25.14;37.38;102011.63;5011476;28;21009;-46
2022/06/10 08:31:13;;;;;;;10.50;3.83;;;;;;;24.75;38.38;102002.84;5009373;28;20874;-45
2022/06/10 08:33:42;;;;;;;5.77;4.00;;;;;;;24.77;39.17;102008.00;5000503;28;20469;-47
2022/06/10 08:36:10;;;;;;;5.97;3.43;;;;;;;24.67;39.13;102013.41;5011000;28;20429;-47
2022/06/10 08:38:41;;;;;;;4.80;3.60;;;;;;;24.62;39.48;102011.44;5011522;28;20988;-48
2022/06/10 08:41:22;;;;;;;5.83;3.70;;;;;;;24.75;40.20;102005.56;5011648;28;20448;-43
2022/06/10 08:43:58;;;;;;;8.67;3.30;;;;;;;24.73;39.63;102007.72;5012061;28;20436;-47
2022/06/10 08:46:46;;;;;;;4.73;3.60;;;;;;;24.65;38.89;102008.19;5011907;28;20464;-47
2022/06/10 08:49:42;;;;;;;3.27;3.00;;;;;;;24.77;38.78;102006.13;5009193;28;20480;-43
2022/06/10 08:52:21;;;;;;;6.33;3.27;;;;;;;24.53;38.45;102009.44;5015067;28;20483;-45
2022/06/10 08:54:55;;;;;;;5.67;3.73;;;;;;;24.55;38.21;102012.75;5015841;28;20818;-46
2022/06/10 08:57:37;;;;;;;4.90;4.20;;;;;;;24.13;39.23;102005.22;5015099;28;20435;-44
2022/06/10 09:00:13;;;;;;;6.00;3.57;;;;;;;24.05;40.58;102013.00;5015839;28;20428;-44
2022/06/10 09:02:48;;;;;;;7.53;3.33;;;;;;;24.11;39.80;102012.00;5015701;28;20463;-45
2022/06/10 09:05:21;;;;;;;5.70;3.93;;;;;;;24.12;41.72;102022.66;5015610;28;20433;-44
2022/06/10 09:07:52;;;;;;;9.50;3.50;;;;;;;24.25;39.73;102016.00;5014761;28;20460;-46
2022/06/10 09:10:25;;;;;;;8.33;3.47;;;;;;;23.96;40.42;102009.06;5015167;28;20937;-43
2022/06/10 09:13:21;;;;;;;6.07;3.53;;;;;;;24.01;42.12;102017.31;5015317;28;20428;-47
2022/06/10 09:15:53;;;;;;;6.80;4.17;;;;;;;24.47;41.18;102010.47;5015342;28;20460;-46
2022/06/10 09:18:27;;;;;;;5.03;3.40;;;;;;;24.67;40.35;102022.38;5014911;28;20460;-44
2022/06/10 09:21:02;;;;;;;5.80;3.90;;;;;;;24.78;40.25;102012.41;5015159;28;20486;-45
2022/06/10 09:23:35;;;;;;;3.83;3.43;;;;;;;24.94;40.36;102011.44;5015428;28;20440;-44
2022/06/10 09:26:09;;;;;;;5.37;3.50;;;;;;;25.06;39.88;102008.56;5015176;28;20428;-45
2022/06/10 09:28:42;;;;;;;5.00;2.70;;;;;;;25.15;39.89;102015.16;5014439;28;21019;-46
2022/06/10 09:31:20;;;;;;;8.57;4.90;;;;;;;25.11;39.39;102008.59;5012954;28;20460;-46
2022/06/10 09:33:57;;;;;;;5.47;3.40;;;;;;;25.36;39.86;102016.13;5003589;28;20433;-44
2022/06/10 09:36:41;;;;;;;5.80;4.80;;;;;;;25.10;39.25;102010.50;4976017;28;20811;-44
2022/06/10 09:42:11;;;;;;;4.93;4.20;;;;;;;24.86;38.78;102014.66;4975376;28;20894;-49
2022/06/10 09:44:45;;;;;;;7.40;3.60;;;;;;;24.43;39.82;102012.88;4975910;28;20434;-46
2022/06/10 09:47:27;;;;;;;6.90;3.83;;;;;;;24.15;40.42;102007.69;4975719;28;20430;-46
2022/06/10 09:50:09;;;;;;;6.73;4.07;;;;;;;24.06;41.05;102020.94;4975597;28;20480;-47
2022/06/10 09:52:48;;;;;;;7.37;3.67;;;;;;;23.97;41.46;102021.63;4975612;28;20979;-49
2022/06/10 09:55:27;;;;;;;7.70;4.30;;;;;;;24.40;41.31;102015.31;4975629;28;20922;-45
2022/06/10 09:58:13;;;;;;;5.23;3.87;;;;;;;24.20;41.70;102007.75;4975072;28;20473;-46
2022/06/10 10:00:52;;;;;;;9.40;4.50;;;;;;;24.21;41.48;102018.41;4975457;28;20443;-48
2022/06/10 10:03:31;;;;;;;4.47;3.87;;;;;;;24.90;40.72;102017.72;4974408;28;20967;-47
2022/06/10 10:06:17;;;;;;;4.50;3.83;;;;;;;24.98;40.43;102018.03;4975374;28;20430;-45
2022/06/10 10:08:51;;;;;;;8.07;4.37;;;;;;;25.36;40.70;102014.19;4974965;28;20573;-45
2022/06/10 10:11:27;;;;;;;8.47;4.40;;;;;;;24.90;41.47;102020.44;4975255;28;20454;-45
2022/06/10 10:14:03;;;;;;;14.93;4.77;;;;;;;24.64;42.45;102022.91;4975422;28;20434;-46
2022/06/10 10:16:44;;;;;;;6.50;4.73;;;;;;;24.30;42.10;102026.13;4975172;28;20780;-44
2022/06/10 10:19:34;;;;;;;11.73;3.90;;;;;;;23.93;42.38;102015.84;4974806;28;20466;-49
2022/06/10 10:22:19;;;;;;;8.33;4.60;;;;;;;23.73;43.08;102020.22;4974933;28;20450;-48
2022/06/10 10:24:47;;;;;;;10.70;4.13;;;;;;;23.52;43.40;102017.25;4975005;28;20443;-50
2022/06/10 10:27:20;;;;;;;9.37;4.50;;;;;;;23.36;43.42;102020.78;4974850;28;20445;-44
2022/06/10 10:29:53;;;;;;;3.77;3.47;;;;;;;23.30;43.62;102027.25;4975107;28;20478;-48
2022/06/10 10:32:27;;;;;;;6.83;3.80;;;;;;;23.38;43.44;102021.38;4990420;28;20460;-44
2022/06/10 10:35:03;;;;;;;10.10;3.87;;;;;;;23.45;42.17;102023.94;5005664;28;20431;-47
2022/06/10 10:37:35;;;;;;;7.50;3.80;;;;;;;23.47;42.85;102019.91;5013879;28;20432;-46
2022/06/10 10:40:07;;;;;;;5.93;3.10;;;;;;;23.66;43.06;102014.97;5013746;28;20424;-44
2022/06/10 10:42:37;;;;;;;7.70;3.87;;;;;;;24.03;43.18;102009.72;5013561;28;20969;-46
2022/06/10 10:45:09;;;;;;;5.60;3.50;;;;;;;24.32;42.01;102016.59;5013795;28;20435;-47
2022/06/10 10:47:39;;;;;;;5.50;3.53;;;;;;;24.10;41.74;102013.06;5013177;28;20456;-47
2022/06/10 10:50:17;;;;;;;10.47;4.57;;;;;;;24.15;41.69;102015.88;5013733;28;20479;-46
2022/06/10 10:52:45;;;;;;;7.57;4.47;;;;;;;24.17;41.80;102009.09;5013721;28;20447;-48
2022/06/10 10:55:27;;;;;;;5.97;3.80;;;;;;;24.15;41.18;102013.16;5013599;28;20439;-47
2022/06/10 10:58:04;;;;;;;4.10;3.73;;;;;;;23.92;42.76;102002.50;5013074;28;20468;-46
2022/06/10 11:00:35;;;;;;;5.60;3.70;;;;;;;24.04;42.18;102003.19;5013393;28;20430;-43
2022/06/10 11:03:04;;;;;;;8.30;3.70;;;;;;;24.45;41.54;102005.28;5013492;28;20447;-45
2022/06/10 11:05:36;;;;;;;7.33;3.63;;;;;;;24.35;41.15;102004.34;5013401;28;20464;-47
2022/06/10 11:08:13;;;;;;;5.00;3.50;;;;;;;24.25;41.38;102001.53;5012928;28;20473;-44
2022/06/10 11:10:52;;;;;;;3.03;2.83;;;;;;;24.27;41.29;101999.38;5012822;28;20827;-51
2022/06/10 11:13:26;;;;;;;5.97;3.17;;;;;;;24.49;41.81;102008.31;5013264;28;20436;-45
2022/06/10 11:15:54;;;;;;;5.13;3.27;;;;;;;24.65;41.84;102015.56;5013305;28;20847;-44
2022/06/10 11:18:23;;;;;;;4.17;3.27;;;;;;;24.57;42.42;102000.50;5012699;28;20465;-44
2022/06/10 11:20:51;;;;;;;4.27;3.10;;;;;;;24.44;41.43;102003.63;5012750;28;20452;-47
2022/06/10 11:23:27;;;;;;;6.20;3.90;;;;;;;24.57;41.40;102016.84;5012928;28;20447;-45
2022/06/10 11:26:10;;;;;;;4.40;3.33;;;;;;;24.61;41.61;102017.16;5013152;28;20682;-46
2022/06/10 11:28:42;;;;;;;4.00;3.40;;;;;;;25.01;41.80;102011.22;5012460;28;20471;-47
2022/06/10 11:31:19;;;;;;;12.30;4.13;;;;;;;25.37;40.79;102010.38;5010424;28;20534;-46
2022/06/10 11:33:52;;;;;;;9.43;3.83;;;;;;;25.74;41.36;102011.16;5001106;28;20467;-46
2022/06/10 11:36:27;;;;;;;4.37;3.53;;;;;;;26.22;40.15;102007.22;4973877;28;20441;-49
2022/06/10 11:39:08;;;;;;;9.67;4.23;;;;;;;26.44;39.45;102009.72;4973263;28;20559;-45
2022/06/10 11:41:36;;;;;;;4.70;3.90;;;;;;;26.30;38.14;102011.34;4973489;28;20835;-46
2022/06/10 11:44:12;;;;;;;7.87;3.60;;;;;;;26.27;39.75;102006.44;4973521;28;20801;-44
2022/06/10 11:46:47;;;;;;;12.80;4.30;;;;;;;25.96;40.15;102000.03;4973790;28;20525;-44
2022/06/10 11:49:23;;;;;;;5.90;3.97;;;;;;;25.94;40.57;102001.38;4973049;28;20928;-44
2022/06/10 11:51:57;;;;;;;5.77;4.27;;;;;;;25.83;41.10;101997.81;4973351;28;20457;-43
2022/06/10 11:54:34;;;;;;;6.00;4.27;;;;;;;25.78;40.48;101997.75;4973206;28;20448;-44
2022/06/10 12:00:01;;;;;;;8.23;4.10;;;;;;;25.47;42.13;101999.53;4973119;28;20446;-44
2022/06/10 12:02:34;;;;;;;8.53;4.37;;;;;;;25.37;41.85;101999.47;4973097;28;20461;-46
2022/06/10 12:05:22;;;;;;;9.27;4.80;;;;;;;25.25;41.98;102005.13;4973413;28;20427;-44
2022/06/10 12:07:57;;;;;;;7.93;4.03;;;;;;;25.30;41.77;101999.69;4970677;28;20466;-44